Time;durP1;ratioP1;P1;durP2;ratioP2;P2;SDS_P1;SDS_P2;PMS_P1;PMS_P2;Temp;Humidity;BMP_temperature;BMP_pressure;BME280_temperature;BME280_humidity;BME280_pressure;Samples;Min_cycle;Max_cycle;Signal;HPM_P1;HPM_P2
2023/09/10 00:01:22;;;;;;;2.83;0.68;;;15.40;99.90;;;;;;5092680;28;20200;-73
2023/09/10 00:03:53;;;;;;;2.45;0.70;;;15.50;99.90;;;;;;5092280;28;20274;-73
2023/09/10 00:06:24;;;;;;;3.63;0.65;;;15.50;99.90;;;;;;5086022;28;20197;-73
2023/09/10 00:08:55;;;;;;;1.83;0.70;;;15.60;99.90;;;;;;5088797;28;20224;-72
2023/09/10 00:11:28;;;;;;;3.25;0.90;;;15.70;99.90;;;;;;5092406;28;20219;-74
2023/09/10 00:13:59;;;;;;;2.55;0.80;;;15.80;99.90;;;;;;5092347;28;20275;-73
2023/09/10 00:16:30;;;;;;;2.03;0.65;;;15.90;99.90;;;;;;5091842;28;20219;-73
2023/09/10 00:19:01;;;;;;;3.08;0.98;;;16.00;99.90;;;;;;5092312;28;20197;-72
2023/09/10 00:21:32;;;;;;;3.28;0.70;;;16.10;99.90;;;;;;5092517;28;20199;-73
2023/09/10 00:24:03;;;;;;;2.28;0.85;;;16.30;99.90;;;;;;5089457;28;20207;-73
2023/09/10 00:26:35;;;;;;;2.45;0.70;;;16.40;99.90;;;;;;5092986;28;20192;-75
2023/09/10 00:29:06;;;;;;;1.63;0.60;;;16.50;99.90;;;;;;5095984;28;20220;-73
2023/09/10 00:31:37;;;;;;;4.15;0.75;;;16.70;99.90;;;;;;5081849;28;20199;-73
2023/09/10 00:34:08;;;;;;;2.30;0.80;;;16.80;99.90;;;;;;5094974;28;20207;-73
2023/09/10 00:36:42;;;;;;;2.03;0.80;;;16.80;99.90;;;;;;5095914;28;20196;-74
2023/09/10 00:39:14;;;;;;;3.45;0.90;;;17.00;99.90;;;;;;5094239;28;20228;-74
2023/09/10 00:41:47;;;;;;;2.15;0.80;;;17.10;99.90;;;;;;5088978;28;20539;-74
2023/09/10 00:44:18;;;;;;;1.55;0.63;;;17.20;99.90;;;;;;5095401;28;20197;-74
2023/09/10 00:46:48;;;;;;;2.42;0.77;;;17.20;99.90;;;;;;5095207;28;20193;-74
2023/09/10 00:49:19;;;;;;;2.97;0.70;;;17.40;99.90;;;;;;5079068;28;20307;-74
2023/09/10 00:51:52;;;;;;;3.42;0.57;;;17.50;99.90;;;;;;5087292;28;20692;-73
2023/09/10 00:54:26;;;;;;;1.88;0.60;;;17.60;99.90;;;;;;5095320;28;20548;-74
2023/09/10 00:57:00;;;;;;;1.40;0.50;;;17.70;99.90;;;;;;5095149;28;20558;-74
2023/09/10 00:59:31;;;;;;;1.33;0.60;;;17.90;99.90;;;;;;5091105;28;20192;-73
2023/09/10 01:02:02;;;;;;;2.72;0.85;;;17.90;99.90;;;;;;5089754;28;20257;-73
2023/09/10 01:04:33;;;;;;;2.72;0.73;;;18.00;99.90;;;;;;5094992;28;20181;-74
2023/09/10 01:07:04;;;;;;;2.65;0.70;;;18.30;99.90;;;;;;5093957;28;20192;-73
2023/09/10 01:09:35;;;;;;;1.63;0.68;;;18.40;99.90;;;;;;5088482;28;20559;-73
2023/09/10 01:12:13;;;;;;;1.30;0.40;;;18.50;99.90;;;;;;5095080;28;20576;-74
2023/09/10 01:14:49;;;;;;;2.05;0.60;;;18.40;99.90;;;;;;5092065;28;20273;-73
2023/09/10 01:17:31;;;;;;;2.10;0.70;;;18.40;99.90;;;;;;5079326;28;20208;-74
2023/09/10 01:20:21;;;;;;;2.70;0.70;;;18.30;99.90;;;;;;5078912;28;20200;-73
2023/09/10 01:23:04;;;;;;;2.85;0.80;;;18.30;99.90;;;;;;5060957;28;20204;-73
2023/09/10 01:25:37;;;;;;;2.90;0.70;;;18.50;99.90;;;;;;5095161;28;20196;-73
2023/09/10 01:28:08;;;;;;;1.42;0.50;;;18.50;99.90;;;;;;5095203;28;20188;-73
2023/09/10 01:30:39;;;;;;;1.88;0.60;;;18.50;99.90;;;;;;5090916;28;20216;-73
2023/09/10 01:33:17;;;;;;;2.35;0.60;;;18.70;99.90;;;;;;5083142;28;20227;-74
2023/09/10 01:35:59;;;;;;;1.35;0.60;;;18.90;99.90;;;;;;5094419;28;20191;-73
2023/09/10 01:38:36;;;;;;;3.47;0.85;;;18.90;99.90;;;;;;5094816;28;20199;-74
2023/09/10 01:41:16;;;;;;;1.50;0.60;;;19.00;99.90;;;;;;5094513;28;20196;-74
2023/09/10 01:43:47;;;;;;;2.42;0.70;;;18.90;99.90;;;;;;5094364;28;20181;-74
2023/09/10 01:46:18;;;;;;;3.13;0.80;;;19.00;99.90;;;;;;5094749;28;20194;-74
2023/09/10 01:48:50;;;;;;;1.23;0.47;;;19.20;99.90;;;;;;5090510;28;20221;-73
2023/09/10 01:51:21;;;;;;;3.05;0.60;;;19.20;99.90;;;;;;5086190;28;20196;-73
2023/09/10 01:53:52;;;;;;;1.73;0.63;;;19.20;99.90;;;;;;5078944;28;20683;-74
2023/09/10 01:56:25;;;;;;;1.08;0.40;;;19.30;99.90;;;;;;5074242;28;20200;-74
2023/09/10 01:58:55;;;;;;;1.40;0.50;;;19.40;99.90;;;;;;5081127;28;20566;-73
2023/09/10 02:01:26;;;;;;;3.08;0.70;;;19.40;99.90;;;;;;5094405;28;20196;-74
2023/09/10 02:03:57;;;;;;;2.22;0.70;;;19.50;99.90;;;;;;5094098;28;20197;-76
2023/09/10 02:06:27;;;;;;;1.73;0.60;;;19.50;99.90;;;;;;5094877;28;20184;-74
2023/09/10 02:08:58;;;;;;;1.90;0.50;;;19.50;99.90;;;;;;5092012;28;20277;-76
2023/09/10 02:11:32;;;;;;;1.15;0.50;;;19.50;99.90;;;;;;5091674;28;20219;-75
2023/09/10 02:14:02;;;;;;;1.38;0.55;;;19.60;99.90;;;;;;5093826;28;20555;-75
2023/09/10 02:16:33;;;;;;;1.42;0.50;;;19.60;99.90;;;;;;5093296;28;20262;-76
2023/09/10 02:19:06;;;;;;;1.38;0.60;;;19.70;99.90;;;;;;5090986;28;20193;-77
2023/09/10 02:21:37;;;;;;;1.77;0.57;;;19.80;99.90;;;;;;5091634;28;20200;-75
2023/09/10 02:24:08;;;;;;;1.67;0.52;;;19.80;99.90;;;;;;5091931;28;20188;-77
2023/09/10 02:26:41;;;;;;;2.17;0.50;;;19.80;99.90;;;;;;5091938;28;20190;-76
2023/09/10 02:29:12;;;;;;;3.25;0.73;;;19.60;99.90;;;;;;5085246;28;20212;-76
2023/09/10 02:31:42;;;;;;;1.42;0.50;;;19.50;99.90;;;;;;5091166;28;20192;-75
2023/09/10 02:34:13;;;;;;;2.20;0.55;;;19.50;99.90;;;;;;5092618;28;20184;-76
2023/09/10 02:36:44;;;;;;;1.83;0.50;;;19.70;99.90;;;;;;5093517;28;20188;-76
2023/09/10 02:39:14;;;;;;;2.92;0.52;;;19.70;99.90;;;;;;5093279;28;20206;-75
2023/09/10 02:41:49;;;;;;;2.20;0.70;;;19.80;99.90;;;;;;5093645;28;20188;-75
2023/09/10 02:44:20;;;;;;;1.50;0.60;;;19.80;99.90;;;;;;5093671;28;20191;-75
2023/09/10 02:46:52;;;;;;;2.67;0.80;;;19.80;99.90;;;;;;5092833;28;20192;-75
2023/09/10 02:49:24;;;;;;;1.45;0.43;;;19.90;99.90;;;;;;5091027;28;20212;-74
2023/09/10 02:51:55;;;;;;;1.15;0.50;;;19.90;99.90;;;;;;5082943;28;20717;-75
2023/09/10 02:54:26;;;;;;;3.72;0.60;;;20.00;99.90;;;;;;5092540;28;20556;-75
2023/09/10 02:56:59;;;;;;;2.97;0.60;;;20.00;99.90;;;;;;5092882;28;20196;-75
2023/09/10 02:59:30;;;;;;;2.60;0.50;;;20.00;99.90;;;;;;5092880;28;20192;-75
2023/09/10 03:02:01;;;;;;;2.70;0.70;;;20.00;99.90;;;;;;5092167;28;20184;-76
2023/09/10 03:04:31;;;;;;;1.85;0.60;;;19.90;99.90;;;;;;5093080;28;20569;-75
2023/09/10 03:07:03;;;;;;;0.70;0.50;;;19.80;99.90;;;;;;5093454;28;20766;-75
2023/09/10 03:09:34;;;;;;;1.65;0.77;;;19.80;99.90;;;;;;5089701;28;20216;-75
2023/09/10 03:12:26;;;;;;;2.78;1.00;;;19.60;99.90;;;;;;5092750;28;20220;-74
2023/09/10 03:14:58;;;;;;;2.28;1.15;;;19.60;99.90;;;;;;5093273;28;20196;-75
2023/09/10 03:17:28;;;;;;;1.08;0.85;;;19.70;99.90;;;;;;5093148;28;20184;-75
2023/09/10 03:19:59;;;;;;;2.00;0.90;;;19.70;99.90;;;;;;5093447;28;20192;-75
2023/09/10 03:22:30;;;;;;;1.85;0.90;;;19.70;99.90;;;;;;5093376;28;20204;-75
2023/09/10 03:25:01;;;;;;;1.92;1.05;;;19.80;99.90;;;;;;5087835;28;20204;-75
2023/09/10 03:27:33;;;;;;;3.53;1.30;;;19.80;99.90;;;;;;5092628;28;20219;-75
2023/09/10 03:30:06;;;;;;;2.30;1.30;;;19.80;99.90;;;;;;5092639;28;20216;-75
2023/09/10 03:32:37;;;;;;;2.58;1.27;;;19.90;99.90;;;;;;5093119;28;20192;-76
2023/09/10 03:35:08;;;;;;;2.33;1.08;;;19.90;99.90;;;;;;5093199;28;20188;-75
2023/09/10 03:37:38;;;;;;;2.78;1.42;;;19.90;99.90;;;;;;5093181;28;20192;-76
2023/09/10 03:40:10;;;;;;;2.38;1.10;;;19.90;99.90;;;;;;5093183;28;20206;-75
2023/09/10 03:42:43;;;;;;;1.15;0.70;;;19.80;99.90;;;;;;5092268;28;20192;-75
2023/09/10 03:45:14;;;;;;;1.92;0.90;;;19.60;99.90;;;;;;5089427;28;20212;-76
2023/09/10 03:47:44;;;;;;;0.93;0.63;;;19.50;99.90;;;;;;5088654;28;20203;-75
2023/09/10 03:50:15;;;;;;;1.52;0.60;;;19.60;99.90;;;;;;5089376;28;20215;-75
2023/09/10 03:52:46;;;;;;;1.42;0.60;;;19.60;99.90;;;;;;5092272;28;20304;-75
2023/09/10 03:55:17;;;;;;;2.03;0.70;;;19.70;99.90;;;;;;5090089;28;20192;-74
2023/09/10 03:57:49;;;;;;;1.85;1.00;;;19.80;99.90;;;;;;5088635;28;20204;-75
2023/09/10 04:00:20;;;;;;;3.10;1.20;;;19.90;99.90;;;;;;5095404;28;20195;-76
2023/09/10 04:02:51;;;;;;;2.28;1.50;;;20.00;99.90;;;;;;5091948;28;20644;-77
2023/09/10 04:05:22;;;;;;;2.65;1.50;;;20.00;99.90;;;;;;5096451;28;20192;-76
2023/09/10 04:07:53;;;;;;;2.78;1.40;;;20.00;99.90;;;;;;5096557;28;20287;-76
2023/09/10 04:10:24;;;;;;;2.75;1.30;;;19.90;99.90;;;;;;5091333;28;20688;-76
2023/09/10 04:13:00;;;;;;;3.72;1.15;;;19.90;99.90;;;;;;5092324;28;20246;-75
2023/09/10 04:15:30;;;;;;;4.38;1.60;;;19.90;99.90;;;;;;5095809;28;20191;-77
2023/09/10 04:18:01;;;;;;;1.30;1.20;;;19.70;99.90;;;;;;5095644;28;20193;-77
2023/09/10 04:20:32;;;;;;;4.65;3.33;;;19.70;99.90;;;;;;5083484;28;20188;-75
2023/09/10 04:23:03;;;;;;;13.45;12.05;;;19.70;99.90;;;;;;5092399;28;20203;-75
2023/09/10 04:25:34;;;;;;;15.52;13.30;;;19.70;99.90;;;;;;5095889;28;20245;-75
2023/09/10 04:28:07;;;;;;;7.50;3.42;;;19.70;99.90;;;;;;5095798;28;20193;-76
2023/09/10 04:30:39;;;;;;;4.53;1.33;;;19.70;99.90;;;;;;5094073;28;20212;-75
2023/09/10 04:33:11;;;;;;;3.15;1.10;;;19.60;99.90;;;;;;5094948;28;20616;-77
2023/09/10 04:35:50;;;;;;;3.40;0.90;;;19.30;99.90;;;;;;5093745;28;20201;-76
2023/09/10 04:38:21;;;;;;;3.05;0.70;;;19.20;99.90;;;;;;5090650;28;20196;-76
2023/09/10 04:40:52;;;;;;;4.57;0.93;;;19.00;99.90;;;;;;5094420;28;20204;-75
2023/09/10 04:43:24;;;;;;;2.03;0.90;;;18.80;99.90;;;;;;5092779;28;20193;-76
2023/09/10 04:45:55;;;;;;;4.97;1.00;;;18.80;99.90;;;;;;5095711;28;20197;-76
2023/09/10 04:48:26;;;;;;;3.85;0.82;;;18.70;99.90;;;;;;5095821;28;20195;-76
2023/09/10 04:50:56;;;;;;;2.70;0.70;;;18.60;99.90;;;;;;5095202;28;20215;-76
2023/09/10 04:53:27;;;;;;;1.90;0.75;;;18.50;99.90;;;;;;5094100;28;20224;-76
2023/09/10 04:55:59;;;;;;;4.22;0.80;;;18.30;99.90;;;;;;5093018;28;20312;-77
2023/09/10 04:58:34;;;;;;;4.18;0.82;;;18.20;99.90;;;;;;5095997;28;20660;-77
2023/09/10 05:01:05;;;;;;;3.92;0.82;;;18.20;99.90;;;;;;5093786;28;20188;-76
2023/09/10 05:03:36;;;;;;;3.03;0.70;;;18.20;99.90;;;;;;5091158;28;20224;-74
2023/09/10 05:06:07;;;;;;;2.58;0.70;;;18.20;99.90;;;;;;5093068;28;20184;-77
2023/09/10 05:08:38;;;;;;;2.97;0.93;;;18.40;99.90;;;;;;5092160;28;20197;-78
2023/09/10 05:11:09;;;;;;;2.40;0.80;;;18.40;99.90;;;;;;5094555;28;20235;-78
2023/09/10 05:13:41;;;;;;;2.95;0.80;;;18.50;99.90;;;;;;5094959;28;20189;-77
2023/09/10 05:16:12;;;;;;;3.15;0.85;;;18.30;99.90;;;;;;5094876;28;20190;-77
2023/09/10 05:18:43;;;;;;;2.92;0.70;;;18.30;99.90;;;;;;5093703;28;20199;-77
2023/09/10 05:21:14;;;;;;;2.22;0.80;;;18.30;99.90;;;;;;5091709;28;20201;-76
2023/09/10 05:23:44;;;;;;;1.88;0.77;;;18.30;99.90;;;;;;5091061;28;20193;-76
2023/09/10 05:26:15;;;;;;;3.95;0.80;;;18.20;99.90;;;;;;5093236;28;20196;-77
2023/09/10 05:28:48;;;;;;;1.67;0.68;;;18.10;99.90;;;;;;5092852;28;20540;-76
2023/09/10 05:31:21;;;;;;;4.22;0.80;;;18.00;99.90;;;;;;5093703;28;20277;-77
2023/09/10 05:33:52;;;;;;;3.15;0.90;;;17.90;99.90;;;;;;5092788;28;20196;-78
2023/09/10 05:36:22;;;;;;;5.15;1.40;;;17.90;99.90;;;;;;5090195;28;20205;-78
2023/09/10 05:38:53;;;;;;;3.15;0.73;;;17.80;99.90;;;;;;5092296;28;20282;-77
2023/09/10 05:41:24;;;;;;;2.70;0.73;;;17.80;99.90;;;;;;5093589;28;20205;-78
2023/09/10 05:43:57;;;;;;;2.70;0.80;;;17.80;99.90;;;;;;5090243;28;20678;-77
2023/09/10 05:46:27;;;;;;;4.55;0.80;;;17.60;99.90;;;;;;5087350;28;20293;-79
2023/09/10 05:48:58;;;;;;;3.30;0.63;;;17.60;99.90;;;;;;5091171;28;20184;-76
2023/09/10 05:51:29;;;;;;;5.20;0.88;;;17.60;99.90;;;;;;5084426;28;20228;-77
2023/09/10 05:53:59;;;;;;;4.25;0.80;;;17.50;99.90;;;;;;5093928;28;20200;-78
2023/09/10 05:56:31;;;;;;;2.80;0.70;;;17.50;99.90;;;;;;5091447;28;20200;-78
2023/09/10 05:59:04;;;;;;;2.28;0.60;;;17.40;99.90;;;;;;5092444;28;20640;-77
2023/09/10 06:01:34;;;;;;;4.22;0.80;;;17.30;99.90;;;;;;5084800;28;20555;-79
2023/09/10 06:04:05;;;;;;;2.17;0.70;;;17.30;99.90;;;;;;5091707;28;20203;-78
2023/09/10 06:06:36;;;;;;;2.10;0.60;;;17.20;99.90;;;;;;5093753;28;20192;-78
2023/09/10 06:09:07;;;;;;;2.05;0.80;;;17.20;99.90;;;;;;5092604;28;20192;-77
2023/09/10 06:11:38;;;;;;;2.58;0.93;;;17.30;99.90;;;;;;5092929;28;20228;-79
2023/09/10 06:14:11;;;;;;;4.35;0.85;;;17.40;99.90;;;;;;5090696;28;20214;-78
2023/09/10 06:16:41;;;;;;;2.33;0.57;;;17.40;99.90;;;;;;5092270;28;20199;-80
2023/09/10 06:19:12;;;;;;;1.13;0.60;;;17.40;99.90;;;;;;5086686;28;20192;-77
2023/09/10 06:21:43;;;;;;;3.42;0.70;;;17.30;99.90;;;;;;5086759;28;20198;-80
2023/09/10 06:24:13;;;;;;;1.80;0.82;;;17.40;99.90;;;;;;5089491;28;20648;-78
2023/09/10 06:26:44;;;;;;;1.38;0.65;;;17.30;99.90;;;;;;5092148;28;20215;-78
2023/09/10 06:29:17;;;;;;;3.75;0.90;;;17.20;99.90;;;;;;5093405;28;20194;-78
2023/09/10 06:31:48;;;;;;;2.90;0.63;;;17.10;99.90;;;;;;5091747;28;20722;-78
2023/09/10 06:34:18;;;;;;;3.45;0.60;;;17.10;99.90;;;;;;5092381;28;20192;-77
2023/09/10 06:36:49;;;;;;;2.28;0.70;;;17.10;99.90;;;;;;5092120;28;20211;-77
2023/09/10 06:39:20;;;;;;;2.70;0.90;;;17.10;99.90;;;;;;5077413;28;20193;-77
2023/09/10 06:41:51;;;;;;;2.55;0.90;;;17.00;99.90;;;;;;5091571;28;20192;-78
2023/09/10 06:44:23;;;;;;;3.10;0.77;;;17.00;99.90;;;;;;5090657;28;20192;-79
2023/09/10 06:46:54;;;;;;;3.00;0.70;;;16.90;99.90;;;;;;5090218;28;20647;-79
2023/09/10 06:49:25;;;;;;;6.18;0.90;;;16.80;99.90;;;;;;5091336;28;20203;-78
2023/09/10 06:51:56;;;;;;;3.10;0.60;;;16.60;99.90;;;;;;5089657;28;20228;-80
2023/09/10 06:54:27;;;;;;;3.05;0.82;;;16.50;99.90;;;;;;5092815;28;20192;-77
2023/09/10 06:56:58;;;;;;;2.80;1.00;;;16.40;99.90;;;;;;5086469;28;20189;-77
2023/09/10 06:59:30;;;;;;;2.85;0.77;;;16.40;99.90;;;;;;5085416;28;20220;-77
2023/09/10 07:02:01;;;;;;;4.07;0.85;;;16.40;99.90;;;;;;5092560;28;20203;-77
2023/09/10 07:04:32;;;;;;;3.75;0.70;;;16.40;99.90;;;;;;5091966;28;20185;-78
2023/09/10 07:07:03;;;;;;;2.50;0.68;;;16.40;99.90;;;;;;5093278;28;20221;-77
2023/09/10 07:09:34;;;;;;;2.63;0.73;;;16.30;99.90;;;;;;5092432;28;20219;-78
2023/09/10 07:12:04;;;;;;;1.73;0.55;;;16.30;99.90;;;;;;5087937;28;20604;-78
2023/09/10 07:14:37;;;;;;;2.15;0.52;;;16.20;99.90;;;;;;5092312;28;20192;-78
2023/09/10 07:17:09;;;;;;;2.20;0.70;;;16.10;99.90;;;;;;5093011;28;20650;-77
2023/09/10 07:19:40;;;;;;;2.45;0.80;;;16.00;99.90;;;;;;5092271;28;20188;-77
2023/09/10 07:22:11;;;;;;;1.38;0.60;;;15.90;99.90;;;;;;5091390;28;20188;-79
2023/09/10 07:24:42;;;;;;;2.20;0.68;;;15.90;99.90;;;;;;5092871;28;20191;-78
2023/09/10 07:27:13;;;;;;;1.85;0.60;;;15.80;99.90;;;;;;5092441;28;20682;-79
2023/09/10 07:29:45;;;;;;;3.28;0.73;;;15.80;99.90;;;;;;5092046;28;20193;-79
2023/09/10 07:32:16;;;;;;;1.60;0.70;;;15.70;99.90;;;;;;5092828;28;20701;-79
2023/09/10 07:34:47;;;;;;;4.78;0.95;;;15.60;99.90;;;;;;5097078;28;20644;-78
2023/09/10 07:37:17;;;;;;;2.50;1.00;;;15.60;99.90;;;;;;5097014;28;20712;-79
2023/09/10 07:39:48;;;;;;;1.52;0.90;;;15.50;99.90;;;;;;5097009;28;20198;-78
2023/09/10 07:42:19;;;;;;;3.88;0.93;;;15.40;99.90;;;;;;5096233;28;20191;-76
2023/09/10 07:44:52;;;;;;;2.33;1.10;;;15.40;99.90;;;;;;5096904;28;20204;-77
2023/09/10 07:47:23;;;;;;;3.45;1.00;;;15.30;99.90;;;;;;5097175;28;20192;-77
2023/09/10 07:49:54;;;;;;;2.72;1.17;;;15.30;99.90;;;;;;5096481;28;20184;-77
2023/09/10 07:52:25;;;;;;;2.05;0.80;;;15.20;99.90;;;;;;5096667;28;20261;-78
2023/09/10 07:54:56;;;;;;;1.92;0.80;;;15.20;99.90;;;;;;5096594;28;20192;-76
2023/09/10 07:57:26;;;;;;;3.55;1.10;;;15.10;99.90;;;;;;5096935;28;20194;-77
2023/09/10 07:59:59;;;;;;;2.67;1.00;;;15.10;99.90;;;;;;5096454;28;20651;-78
2023/09/10 08:02:30;;;;;;;4.63;1.10;;;15.10;99.90;;;;;;5093138;28;20219;-77
2023/09/10 08:05:01;;;;;;;2.85;0.85;;;15.00;99.90;;;;;;5084816;28;20204;-77
2023/09/10 08:07:31;;;;;;;2.22;0.98;;;15.00;99.90;;;;;;5089966;28;20556;-77
2023/09/10 08:10:02;;;;;;;3.47;1.10;;;15.00;99.90;;;;;;5096040;28;20226;-77
2023/09/10 08:12:33;;;;;;;3.72;1.00;;;14.90;99.90;;;;;;5095716;28;20212;-77
2023/09/10 08:15:06;;;;;;;4.22;1.00;;;14.90;99.90;;;;;;5092398;28;20193;-79
2023/09/10 08:17:37;;;;;;;2.80;1.15;;;14.90;99.90;;;;;;5095964;28;20656;-77
2023/09/10 08:20:08;;;;;;;4.20;0.95;;;14.80;99.90;;;;;;5087624;28;20196;-78
2023/09/10 08:22:39;;;;;;;2.17;1.00;;;14.80;99.90;;;;;;5095870;28;20212;-77
2023/09/10 08:25:10;;;;;;;4.03;0.93;;;14.80;99.90;;;;;;5095948;28;20197;-78
2023/09/10 08:27:41;;;;;;;2.95;1.10;;;14.70;99.90;;;;;;5095973;28;20554;-78
2023/09/10 08:30:15;;;;;;;2.28;0.90;;;14.70;99.90;;;;;;5095970;28;20200;-78
2023/09/10 08:32:47;;;;;;;4.30;1.20;;;14.70;99.90;;;;;;5095661;28;20224;-77
2023/09/10 08:35:20;;;;;;;4.38;1.15;;;14.70;99.90;;;;;;5095380;28;20196;-78
2023/09/10 08:37:51;;;;;;;5.30;1.50;;;14.60;99.90;;;;;;5089456;28;20660;-77
2023/09/10 08:40:22;;;;;;;2.25;1.08;;;14.60;99.90;;;;;;5095470;28;20199;-78
2023/09/10 08:43:04;;;;;;;3.20;1.30;;;14.50;99.90;;;;;;5095545;28;20200;-77
2023/09/10 08:45:36;;;;;;;2.55;1.42;;;14.50;99.90;;;;;;5094100;28;20200;-78
2023/09/10 08:48:09;;;;;;;2.20;1.20;;;14.50;99.90;;;;;;5095608;28;20196;-77
2023/09/10 08:50:40;;;;;;;4.22;1.77;;;14.50;99.90;;;;;;5095090;28;20214;-78
2023/09/10 08:53:13;;;;;;;2.40;1.35;;;14.40;99.90;;;;;;5095107;28;20730;-77
2023/09/10 08:55:46;;;;;;;3.63;1.20;;;14.40;99.90;;;;;;5094198;28;20188;-78
2023/09/10 08:58:19;;;;;;;2.70;1.10;;;14.30;99.90;;;;;;5095256;28;20196;-78
2023/09/10 09:00:52;;;;;;;3.63;1.40;;;14.30;99.90;;;;;;5095243;28;20195;-79
2023/09/10 09:03:24;;;;;;;3.58;1.40;;;14.20;99.90;;;;;;5095012;28;20553;-76
2023/09/10 09:05:56;;;;;;;3.05;1.30;;;14.20;99.90;;;;;;5094752;28;20241;-78
2023/09/10 09:08:31;;;;;;;5.45;1.63;;;14.20;99.90;;;;;;5095299;28;20668;-76
2023/09/10 09:11:05;;;;;;;3.10;1.40;;;14.10;99.90;;;;;;5094496;28;20234;-77
2023/09/10 09:13:43;;;;;;;3.90;1.45;;;14.10;99.90;;;;;;5094981;28;20599;-78
2023/09/10 09:16:17;;;;;;;3.33;1.52;;;14.10;99.90;;;;;;5095012;28;20580;-78
2023/09/10 09:18:49;;;;;;;3.97;1.60;;;14.00;99.90;;;;;;5094694;28;20199;-78
2023/09/10 09:21:21;;;;;;;3.53;1.70;;;14.00;99.90;;;;;;5094920;28;20215;-77
2023/09/10 09:23:56;;;;;;;3.63;1.40;;;14.00;99.90;;;;;;5094890;28;20192;-76
2023/09/10 09:26:29;;;;;;;2.88;1.30;;;13.90;99.90;;;;;;5090693;28;20196;-77
2023/09/10 09:29:00;;;;;;;3.92;1.60;;;13.90;99.90;;;;;;5082205;28;20264;-76
2023/09/10 09:31:32;;;;;;;3.08;1.50;;;13.90;99.90;;;;;;5094433;28;20212;-77
2023/09/10 09:34:03;;;;;;;3.95;1.90;;;13.90;99.90;;;;;;5094263;28;20200;-78
2023/09/10 09:36:36;;;;;;;3.97;1.80;;;13.80;99.90;;;;;;5094222;28;20196;-76
2023/09/10 09:39:09;;;;;;;2.95;1.58;;;13.80;99.90;;;;;;5093385;28;20743;-77
2023/09/10 09:41:40;;;;;;;6.30;1.70;;;13.80;99.90;;;;;;5093750;28;20276;-76
2023/09/10 09:44:11;;;;;;;2.35;1.50;;;13.80;99.90;;;;;;5094304;28;20223;-78
2023/09/10 09:46:45;;;;;;;7.13;1.77;;;13.70;99.90;;;;;;5094195;28;20207;-77
2023/09/10 09:49:15;;;;;;;4.20;1.80;;;13.70;99.90;;;;;;5093609;28;20234;-76
2023/09/10 09:51:47;;;;;;;4.60;2.08;;;13.70;99.90;;;;;;5093879;28;20223;-77
2023/09/10 09:54:17;;;;;;;5.22;2.22;;;13.70;99.90;;;;;;5094252;28;20796;-76
2023/09/10 09:56:49;;;;;;;5.05;2.10;;;13.60;99.90;;;;;;5093924;28;20196;-77
2023/09/10 09:59:23;;;;;;;3.92;2.40;;;13.60;99.90;;;;;;5093957;28;20204;-77
2023/09/10 10:01:59;;;;;;;6.57;2.45;;;13.60;99.90;;;;;;5093823;28;20203;-76
2023/09/10 10:04:30;;;;;;;3.50;1.90;;;13.60;99.90;;;;;;5093801;28;20196;-77
2023/09/10 10:07:01;;;;;;;6.90;2.47;;;13.50;99.90;;;;;;5093636;28;20192;-77
2023/09/10 10:09:38;;;;;;;5.15;2.38;;;13.50;99.90;;;;;;5093743;28;20216;-77
2023/09/10 10:12:10;;;;;;;5.10;2.17;;;13.50;99.90;;;;;;5093859;28;20226;-76
2023/09/10 10:14:41;;;;;;;5.85;2.25;;;13.40;99.90;;;;;;5093822;28;20715;-77
2023/09/10 10:17:14;;;;;;;4.63;2.13;;;13.40;99.90;;;;;;5093289;28;20200;-76
2023/09/10 10:19:45;;;;;;;6.13;2.78;;;13.40;99.90;;;;;;5093911;28;20764;-77
2023/09/10 10:22:17;;;;;;;4.50;2.28;;;13.30;99.90;;;;;;5093928;28;20652;-77
2023/09/10 10:24:48;;;;;;;6.97;2.30;;;13.30;99.90;;;;;;5084975;28;20200;-78
2023/09/10 10:27:19;;;;;;;5.57;2.70;;;13.30;99.90;;;;;;5093549;28;20203;-77
2023/09/10 10:29:50;;;;;;;5.57;2.70;;;13.30;99.90;;;;;;5093408;28;20562;-78
2023/09/10 10:32:30;;;;;;;6.00;2.40;;;13.30;99.90;;;;;;5093496;28;20218;-78
2023/09/10 10:35:05;;;;;;;4.35;2.13;;;13.20;99.90;;;;;;5089858;28;20278;-78
2023/09/10 10:37:45;;;;;;;5.30;2.72;;;13.20;99.90;;;;;;5093849;28;20253;-78
2023/09/10 10:40:17;;;;;;;5.40;2.55;;;13.20;99.90;;;;;;5080194;28;20654;-76
2023/09/10 10:42:52;;;;;;;5.72;2.42;;;13.20;99.90;;;;;;5093240;28;20659;-79
2023/09/10 10:45:26;;;;;;;5.53;2.80;;;13.20;99.90;;;;;;5092984;28;20188;-79
2023/09/10 10:48:06;;;;;;;4.68;2.83;;;13.10;99.90;;;;;;5092989;28;20204;-79
2023/09/10 10:50:40;;;;;;;7.50;3.03;;;13.10;99.90;;;;;;5093146;28;20199;-78
2023/09/10 10:53:18;;;;;;;6.50;2.97;;;13.10;99.90;;;;;;5092474;28;20241;-79
2023/09/10 10:55:52;;;;;;;6.38;2.90;;;13.10;99.90;;;;;;5091776;28;20206;-78
2023/09/10 10:58:24;;;;;;;7.13;3.08;;;13.00;99.90;;;;;;5092821;28;20261;-79
2023/09/10 11:00:56;;;;;;;5.88;2.83;;;13.00;99.90;;;;;;5092699;28;20726;-79
2023/09/10 11:03:29;;;;;;;5.57;2.70;;;13.00;99.90;;;;;;5092982;28;20716;-78
2023/09/10 11:06:10;;;;;;;5.93;2.83;;;13.00;99.90;;;;;;5092731;28;20224;-79
2023/09/10 11:08:42;;;;;;;6.72;2.92;;;12.90;99.90;;;;;;5092400;28;20210;-78
2023/09/10 11:11:33;;;;;;;6.80;3.05;;;12.90;99.90;;;;;;5092743;28;20192;-78
2023/09/10 11:14:05;;;;;;;6.50;2.90;;;12.90;99.90;;;;;;5090473;28;20196;-78
2023/09/10 11:16:36;;;;;;;6.40;2.70;;;12.90;99.90;;;;;;5093177;28;20201;-78
2023/09/10 11:19:09;;;;;;;6.68;2.80;;;12.90;99.90;;;;;;5092958;28;20200;-76
2023/09/10 11:22:06;;;;;;;6.35;3.05;;;12.90;99.90;;;;;;5093314;28;20206;-77
2023/09/10 11:24:36;;;;;;;4.90;2.70;;;12.90;99.90;;;;;;5082661;28;20559;-77
2023/09/10 11:27:25;;;;;;;6.70;3.03;;;12.90;99.90;;;;;;5091567;28;20648;-77
2023/09/10 11:30:13;;;;;;;5.43;3.30;;;12.80;99.90;;;;;;5092676;28;20324;-77
2023/09/10 11:32:44;;;;;;;6.15;3.08;;;12.80;99.90;;;;;;5092994;28;20683;-78
2023/09/10 11:35:29;;;;;;;7.28;3.75;;;12.80;99.90;;;;;;5092303;28;20687;-78
2023/09/10 11:38:00;;;;;;;6.43;3.55;;;12.80;99.90;;;;;;5087014;28;20604;-77
2023/09/10 11:40:31;;;;;;;6.30;4.20;;;12.90;99.90;;;;;;5092995;28;20196;-78
2023/09/10 11:43:02;;;;;;;7.75;4.00;;;12.90;99.90;;;;;;5092114;28;20196;-77
2023/09/10 11:45:34;;;;;;;8.90;4.10;;;12.90;99.90;;;;;;5093011;28;20196;-77
2023/09/10 11:48:05;;;;;;;9.07;4.38;;;12.90;99.90;;;;;;5092409;28;20204;-78
2023/09/10 11:50:38;;;;;;;10.43;4.32;;;12.90;99.90;;;;;;5092640;28;20287;-77
2023/09/10 11:53:09;;;;;;;8.98;4.18;;;12.90;99.90;;;;;;5092013;28;20235;-77
2023/09/10 11:55:40;;;;;;;7.82;4.38;;;12.90;99.90;;;;;;5092750;28;20656;-77
2023/09/10 11:58:11;;;;;;;10.60;4.75;;;12.90;99.90;;;;;;5092508;28;20192;-78
2023/09/10 12:00:46;;;;;;;8.93;4.72;;;12.90;99.90;;;;;;5092839;28;20193;-77
2023/09/10 12:03:17;;;;;;;9.73;4.50;;;12.80;99.90;;;;;;5092133;28;20192;-78
2023/09/10 12:05:50;;;;;;;7.50;4.60;;;12.80;99.90;;;;;;5092377;28;20192;-77
2023/09/10 12:08:21;;;;;;;8.07;4.45;;;12.80;99.90;;;;;;5089248;28;20196;-76
2023/09/10 12:10:52;;;;;;;9.05;4.57;;;12.80;99.90;;;;;;5086424;28;20303;-77
2023/09/10 12:13:23;;;;;;;10.27;4.90;;;12.80;99.90;;;;;;5090799;28;20208;-77
2023/09/10 12:15:54;;;;;;;9.13;4.80;;;12.80;99.90;;;;;;5092792;28;20204;-77
2023/09/10 12:18:26;;;;;;;7.05;4.43;;;12.70;99.90;;;;;;5090551;28;20195;-77
2023/09/10 12:21:01;;;;;;;8.88;4.70;;;12.70;99.90;;;;;;5085363;28;20201;-76
2023/09/10 12:23:32;;;;;;;8.57;4.78;;;12.70;99.90;;;;;;5092231;28;20191;-77
2023/09/10 12:26:04;;;;;;;7.85;4.78;;;12.70;99.90;;;;;;5096364;28;20199;-78
2023/09/10 12:28:36;;;;;;;8.52;4.70;;;12.60;99.90;;;;;;5096013;28;20230;-78
2023/09/10 12:31:06;;;;;;;9.10;4.30;;;12.60;99.90;;;;;;5096245;28;20196;-77
2023/09/10 12:33:38;;;;;;;8.23;5.20;;;12.50;99.90;;;;;;5093264;28;20575;-77
2023/09/10 12:36:11;;;;;;;8.30;4.78;;;12.50;99.90;;;;;;5092773;28;20249;-76
2023/09/10 12:38:41;;;;;;;6.85;4.38;;;12.40;99.90;;;;;;5095979;28;20184;-76
2023/09/10 12:41:12;;;;;;;8.43;4.82;;;12.40;99.90;;;;;;5095876;28;20184;-77
2023/09/10 12:43:43;;;;;;;8.80;4.40;;;12.30;99.90;;;;;;5093410;28;20197;-77
2023/09/10 12:46:14;;;;;;;7.45;4.50;;;12.30;99.90;;;;;;5080308;28;20181;-76
2023/09/10 12:48:45;;;;;;;9.93;5.03;;;12.20;99.90;;;;;;5091114;28;20188;-76
2023/09/10 12:51:18;;;;;;;11.45;5.63;;;12.20;99.90;;;;;;5088465;28;20204;-76
2023/09/10 12:53:50;;;;;;;9.57;5.68;;;12.20;99.90;;;;;;5095955;28;20219;-76
2023/09/10 12:56:21;;;;;;;11.50;6.63;;;12.10;99.90;;;;;;5094112;28;20184;-76
2023/09/10 12:58:52;;;;;;;11.52;7.55;;;12.10;99.90;;;;;;5076896;28;20197;-76
2023/09/10 13:01:25;;;;;;;13.75;9.45;;;12.00;99.90;;;;;;5087802;28;20200;-76
2023/09/10 13:03:56;;;;;;;31.83;18.63;;;12.00;99.90;;;;;;5081109;28;20228;-76
2023/09/10 13:06:28;;;;;;;32.28;21.00;;;11.90;99.90;;;;;;5075459;28;20197;-76
2023/09/10 13:09:04;;;;;;;35.97;23.27;;;11.80;99.90;;;;;;5093490;28;20216;-76
2023/09/10 13:11:36;;;;;;;52.55;33.72;;;11.80;99.90;;;;;;5095048;28;20191;-76